Time;durP1;ratioP1;P1;durP2;ratioP2;P2;SDS_P1;SDS_P2;PMS_P1;PMS_P2;Temp;Humidity;BMP_temperature;BMP_pressure;BME280_temperature;BME280_humidity;BME280_pressure;Samples;Min_cycle;Max_cycle;Signal;HPM_P1;HPM_P2
2023/02/17 00:02:21;;;;;;;7.95;4.40;;;8.90;27.90;;;;;;4937887;29;20198;-92
2023/02/17 00:04:48;;;;;;;5.97;4.60;;;8.90;27.30;;;;;;4945241;29;20210;-88
2023/02/17 00:07:16;;;;;;;6.07;4.20;;;8.90;28.00;;;;;;4945706;29;20206;-91
2023/02/17 00:09:43;;;;;;;7.43;4.50;;;8.80;28.00;;;;;;4950201;29;20198;-89
2023/02/17 00:12:10;;;;;;;7.45;4.30;;;8.80;28.50;;;;;;4937561;29;20209;-93
2023/02/17 00:14:39;;;;;;;5.95;4.15;;;8.80;29.00;;;;;;4939275;29;20213;-92
2023/02/17 00:17:06;;;;;;;7.72;4.20;;;8.70;29.50;;;;;;4934623;29;20202;-91
2023/02/17 00:19:33;;;;;;;7.88;4.20;;;8.60;30.00;;;;;;4934802;29;20221;-91
2023/02/17 00:22:00;;;;;;;7.60;4.07;;;8.60;30.50;;;;;;4934981;28;20209;-92
2023/02/17 00:24:30;;;;;;;6.22;4.05;;;8.50;30.60;;;;;;4936383;29;20205;-92
2023/02/17 00:26:57;;;;;;;7.97;4.28;;;8.50;30.40;;;;;;4937340;28;20213;-92
2023/02/17 00:29:24;;;;;;;5.25;4.00;;;8.60;30.20;;;;;;4932235;29;20214;-92
2023/02/17 00:31:53;;;;;;;6.78;4.22;;;8.60;30.00;;;;;;4932187;29;20205;-93
2023/02/17 00:34:19;;;;;;;7.78;4.63;;;8.60;31.20;;;;;;4931098;29;20201;-92
2023/02/17 00:36:47;;;;;;;7.15;4.32;;;8.50;30.60;;;;;;4935890;29;20204;-92
2023/02/17 00:39:15;;;;;;;7.03;4.57;;;8.50;31.00;;;;;;4925949;29;20222;-92
2023/02/17 00:41:43;;;;;;;8.18;4.07;;;8.50;31.00;;;;;;4935521;29;20678;-91
2023/02/17 00:44:17;;;;;;;6.97;4.07;;;8.50;31.40;;;;;;4930142;29;20211;-93
2023/02/17 00:46:44;;;;;;;8.07;4.40;;;8.40;31.20;;;;;;4935245;29;20684;-92
2023/02/17 00:49:15;;;;;;;6.40;4.22;;;8.40;31.20;;;;;;4942530;28;20206;-90
2023/02/17 00:51:42;;;;;;;6.03;4.35;;;8.40;31.00;;;;;;4934849;29;20682;-91
2023/02/17 00:54:09;;;;;;;4.90;4.05;;;8.30;31.20;;;;;;4940276;29;20260;-93
2023/02/17 00:56:36;;;;;;;5.75;4.15;;;8.40;30.80;;;;;;4932355;29;20211;-92
2023/02/17 00:59:04;;;;;;;8.45;4.30;;;8.40;31.20;;;;;;4932698;29;20705;-92
2023/02/17 01:01:32;;;;;;;7.50;4.57;;;8.40;31.90;;;;;;4936620;29;20562;-92
2023/02/17 01:03:59;;;;;;;4.90;3.95;;;8.40;32.10;;;;;;4934308;29;20217;-91
2023/02/17 01:06:27;;;;;;;9.07;4.68;;;8.30;32.80;;;;;;4934262;29;20209;-90
2023/02/17 01:08:54;;;;;;;5.65;4.18;;;8.30;32.60;;;;;;4935389;29;20692;-92
2023/02/17 01:11:23;;;;;;;5.85;4.20;;;8.30;33.80;;;;;;4932111;29;20206;-91
2023/02/17 01:13:50;;;;;;;7.07;4.47;;;8.20;35.10;;;;;;4936247;29;20195;-92
2023/02/17 01:16:21;;;;;;;7.13;4.47;;;8.20;35.20;;;;;;4934640;29;20202;-92
2023/02/17 01:18:48;;;;;;;6.80;4.03;;;8.10;34.50;;;;;;4927680;29;20238;-92
2023/02/17 01:21:19;;;;;;;6.38;4.43;;;8.10;34.30;;;;;;4934953;29;20194;-92
2023/02/17 01:23:46;;;;;;;5.57;4.18;;;8.00;34.20;;;;;;4933428;29;20213;-92
2023/02/17 01:26:17;;;;;;;6.05;4.20;;;7.90;34.00;;;;;;4933610;29;20201;-90
2023/02/17 01:28:44;;;;;;;7.68;4.30;;;7.90;35.00;;;;;;4938244;29;20209;-91
2023/02/17 01:31:12;;;;;;;6.90;4.35;;;7.80;35.10;;;;;;4937733;29;20213;-92
2023/02/17 01:33:41;;;;;;;6.90;4.50;;;7.70;35.10;;;;;;4934999;29;20566;-92
2023/02/17 01:36:10;;;;;;;5.55;4.20;;;7.70;36.00;;;;;;4937578;29;20221;-91
2023/02/17 01:38:37;;;;;;;6.55;4.28;;;7.70;35.50;;;;;;4934411;29;20232;-92
2023/02/17 01:41:05;;;;;;;10.15;4.50;;;7.60;34.90;;;;;;4926533;29;20206;-92
2023/02/17 01:43:32;;;;;;;8.45;4.82;;;7.60;35.20;;;;;;4927857;29;20203;-91
2023/02/17 01:46:01;;;;;;;7.05;4.50;;;7.50;34.80;;;;;;4931100;29;20550;-93
2023/02/17 01:48:30;;;;;;;7.10;4.63;;;7.50;35.70;;;;;;4929083;29;20195;-92
2023/02/17 01:51:03;;;;;;;7.40;4.70;;;7.40;36.70;;;;;;4934359;29;20202;-92
2023/02/17 01:53:35;;;;;;;7.35;4.90;;;7.40;37.80;;;;;;4934763;29;20678;-92
2023/02/17 01:56:03;;;;;;;10.30;4.75;;;7.40;40.70;;;;;;4931621;29;20221;-92
2023/02/17 01:58:31;;;;;;;7.55;5.03;;;7.40;38.80;;;;;;4934425;29;20233;-92
2023/02/17 02:01:01;;;;;;;6.68;4.60;;;7.50;38.00;;;;;;4934132;29;20662;-92
2023/02/17 02:03:31;;;;;;;10.45;5.07;;;7.60;37.10;;;;;;4935496;29;20206;-92
2023/02/17 02:06:00;;;;;;;8.15;4.88;;;7.70;37.00;;;;;;4934111;29;20204;-92
2023/02/17 02:08:29;;;;;;;7.75;4.85;;;7.70;35.90;;;;;;4937079;29;20201;-92
2023/02/17 02:10:56;;;;;;;7.72;5.15;;;7.80;35.10;;;;;;4935696;29;20638;-92
2023/02/17 02:13:23;;;;;;;8.48;4.28;;;7.90;35.40;;;;;;4929777;29;20194;-92
2023/02/17 02:15:57;;;;;;;6.80;4.47;;;7.90;35.00;;;;;;4930655;29;20199;-92
2023/02/17 02:18:40;;;;;;;7.18;4.63;;;7.90;34.40;;;;;;4929340;29;20229;-91
2023/02/17 02:21:43;;;;;;;8.43;4.22;;;8.00;34.80;;;;;;4929718;29;20204;-92
2023/02/17 02:24:23;;;;;;;6.22;4.10;;;8.10;34.50;;;;;;4931905;29;20198;-92
2023/02/17 02:27:29;;;;;;;7.43;4.30;;;8.20;32.80;;;;;;4936429;29;20228;-91
2023/02/17 02:30:22;;;;;;;6.28;4.00;;;8.30;32.00;;;;;;4933073;29;20224;-91
2023/02/17 02:32:58;;;;;;;6.72;4.20;;;8.40;32.20;;;;;;4934901;29;20206;-91
2023/02/17 02:35:31;;;;;;;6.85;4.05;;;8.40;32.10;;;;;;4932960;29;20209;-92
2023/02/17 02:38:03;;;;;;;6.53;4.20;;;8.40;31.90;;;;;;4932764;29;20248;-91
2023/02/17 02:40:35;;;;;;;6.60;4.50;;;8.50;31.60;;;;;;4929965;29;20276;-91
2023/02/17 02:43:03;;;;;;;5.82;3.97;;;8.50;31.80;;;;;;4931981;29;20218;-90
2023/02/17 02:45:31;;;;;;;6.00;4.43;;;8.60;30.00;;;;;;4935546;29;20209;-93
2023/02/17 02:47:59;;;;;;;7.30;4.15;;;8.70;30.10;;;;;;4933466;29;20206;-91
2023/02/17 02:50:39;;;;;;;7.35;4.32;;;8.80;30.00;;;;;;4931602;29;20206;-91
2023/02/17 02:53:22;;;;;;;7.80;4.32;;;8.70;30.00;;;;;;4931181;29;20712;-90
2023/02/17 02:55:54;;;;;;;5.10;4.13;;;8.80;29.90;;;;;;4937431;29;20213;-92
2023/02/17 02:58:27;;;;;;;6.28;4.32;;;8.80;30.30;;;;;;4934523;29;20202;-91
2023/02/17 03:00:59;;;;;;;8.07;3.95;;;8.80;30.40;;;;;;4932577;29;20205;-90
2023/02/17 03:03:40;;;;;;;6.68;4.18;;;8.90;30.60;;;;;;4934605;29;20209;-92
2023/02/17 03:06:15;;;;;;;6.10;3.88;;;9.10;28.80;;;;;;4934466;29;20212;-92
2023/02/17 03:08:47;;;;;;;5.70;3.63;;;9.10;28.60;;;;;;4933774;29;20209;-92
2023/02/17 03:11:30;;;;;;;8.10;4.00;;;9.20;28.80;;;;;;4936552;29;20190;-92
2023/02/17 03:14:00;;;;;;;4.82;3.97;;;9.20;28.30;;;;;;4933605;29;20230;-89
2023/02/17 03:16:27;;;;;;;5.80;4.03;;;9.20;28.60;;;;;;4934473;29;20202;-92
2023/02/17 03:18:55;;;;;;;6.22;4.20;;;9.20;28.10;;;;;;4931970;29;20580;-91
2023/02/17 03:21:23;;;;;;;6.45;4.00;;;9.30;27.60;;;;;;4936386;29;20205;-90
2023/02/17 03:23:50;;;;;;;5.38;3.67;;;9.40;27.00;;;;;;4933033;29;20206;-90
2023/02/17 03:26:16;;;;;;;7.47;4.15;;;9.40;27.40;;;;;;4942823;29;20202;-91
2023/02/17 03:28:43;;;;;;;6.57;3.97;;;9.40;27.20;;;;;;4934733;29;20214;-93
2023/02/17 03:31:10;;;;;;;8.93;3.90;;;9.50;26.50;;;;;;4938095;29;20206;-90
2023/02/17 03:33:37;;;;;;;10.13;4.28;;;9.40;26.80;;;;;;4933889;29;20209;-91
2023/02/17 03:36:06;;;;;;;6.55;3.90;;;9.30;27.40;;;;;;4930553;29;20202;-92
2023/02/17 03:38:33;;;;;;;4.70;3.53;;;9.30;27.70;;;;;;4924028;29;20198;-91
2023/02/17 03:41:00;;;;;;;7.50;4.20;;;9.30;28.40;;;;;;4947609;28;20198;-89
2023/02/17 03:43:27;;;;;;;6.47;3.83;;;9.20;28.60;;;;;;4948273;29;20198;-91
2023/02/17 03:45:54;;;;;;;5.53;4.10;;;9.30;28.20;;;;;;4936532;29;20666;-92
2023/02/17 03:48:20;;;;;;;5.90;3.72;;;9.20;28.10;;;;;;4931714;29;20198;-92
2023/02/17 03:50:47;;;;;;;5.10;3.67;;;9.20;27.80;;;;;;4933208;29;20202;-90
2023/02/17 03:53:15;;;;;;;6.00;3.90;;;9.30;27.50;;;;;;4934634;29;20217;-92
2023/02/17 03:55:42;;;;;;;5.43;4.05;;;9.30;28.80;;;;;;4925642;28;20205;-92
2023/02/17 03:58:09;;;;;;;5.43;3.80;;;9.30;27.90;;;;;;4933631;29;20198;-92
2023/02/17 04:00:36;;;;;;;4.38;3.50;;;9.30;26.90;;;;;;4933106;29;20234;-92
2023/02/17 04:03:03;;;;;;;6.30;3.40;;;9.40;27.10;;;;;;4933667;29;20214;-89
2023/02/17 04:05:29;;;;;;;4.70;3.28;;;9.50;25.40;;;;;;4938942;29;20210;-92
2023/02/17 04:07:56;;;;;;;7.32;3.55;;;9.50;26.10;;;;;;4937196;29;20222;-92
2023/02/17 04:10:24;;;;;;;6.93;3.70;;;9.50;26.30;;;;;;4930628;29;20325;-91
2023/02/17 04:12:51;;;;;;;5.97;3.42;;;9.50;26.30;;;;;;4928939;29;20210;-92
2023/02/17 04:15:18;;;;;;;5.00;3.17;;;9.40;26.90;;;;;;4931315;29;20577;-91
2023/02/17 04:17:45;;;;;;;5.38;3.30;;;9.40;27.30;;;;;;4933242;29;20644;-91
2023/02/17 04:20:12;;;;;;;5.18;3.00;;;9.40;27.10;;;;;;4934081;29;20244;-91
2023/02/17 04:22:39;;;;;;;6.40;3.10;;;9.40;26.60;;;;;;4931715;29;20296;-92
2023/02/17 04:25:06;;;;;;;4.85;3.10;;;9.50;26.10;;;;;;4935402;29;20202;-91
2023/02/17 04:27:35;;;;;;;5.63;3.38;;;9.50;25.60;;;;;;4934891;29;20195;-91
2023/02/17 04:30:02;;;;;;;4.43;3.00;;;9.60;25.00;;;;;;4936654;29;20587;-91
2023/02/17 04:32:29;;;;;;;4.45;3.08;;;9.60;25.00;;;;;;4937776;29;20206;-90
2023/02/17 04:34:56;;;;;;;5.53;3.30;;;9.60;25.70;;;;;;4946595;29;20677;-90
2023/02/17 04:37:23;;;;;;;5.82;3.47;;;9.70;24.90;;;;;;4936532;29;20202;-91
2023/02/17 04:39:50;;;;;;;4.13;3.25;;;9.80;24.90;;;;;;4952609;29;20637;-89
2023/02/17 04:42:16;;;;;;;4.63;2.70;;;9.90;25.00;;;;;;4935812;29;20198;-91
2023/02/17 04:44:45;;;;;;;5.72;3.67;;;9.80;24.90;;;;;;4936967;29;20673;-91
2023/02/17 04:47:12;;;;;;;3.85;3.03;;;9.90;25.00;;;;;;4931694;29;20202;-92
2023/02/17 04:49:39;;;;;;;3.88;2.83;;;10.00;23.60;;;;;;4933334;29;20206;-91
2023/02/17 04:52:06;;;;;;;6.85;3.22;;;10.00;23.60;;;;;;4939653;29;20206;-91
2023/02/17 04:54:34;;;;;;;3.83;2.80;;;10.00;23.60;;;;;;4931281;29;20205;-92
2023/02/17 04:57:00;;;;;;;4.32;2.80;;;9.90;25.00;;;;;;4939499;29;21018;-92
2023/02/17 04:59:27;;;;;;;4.32;3.17;;;10.00;23.60;;;;;;4945099;29;20240;-92
2023/02/17 05:01:55;;;;;;;7.80;2.72;;;10.10;23.70;;;;;;4935964;29;20213;-92
2023/02/17 05:04:22;;;;;;;4.68;3.03;;;10.20;23.80;;;;;;4940536;29;20213;-91
2023/02/17 05:06:49;;;;;;;6.03;2.90;;;10.10;23.70;;;;;;4932794;29;20207;-92
2023/02/17 05:09:16;;;;;;;6.85;3.10;;;10.10;24.80;;;;;;4934145;29;20206;-91
2023/02/17 05:11:43;;;;;;;4.75;2.97;;;10.00;23.70;;;;;;4930980;29;20681;-92
2023/02/17 05:14:09;;;;;;;5.28;3.22;;;10.00;23.60;;;;;;4931490;29;20205;-91
2023/02/17 05:16:36;;;;;;;5.53;3.28;;;10.10;23.70;;;;;;4933632;29;20198;-89
2023/02/17 05:19:05;;;;;;;5.15;2.72;;;10.10;23.70;;;;;;4935451;29;20212;-91
2023/02/17 05:21:32;;;;;;;3.80;3.13;;;10.10;23.70;;;;;;4943397;29;20652;-92
2023/02/17 05:23:59;;;;;;;6.35;3.10;;;10.00;23.60;;;;;;4936248;29;20202;-92
2023/02/17 05:26:26;;;;;;;4.63;2.95;;;10.00;23.70;;;;;;4932598;29;20605;-92
2023/02/17 05:28:53;;;;;;;4.45;3.00;;;10.10;23.70;;;;;;4934890;29;20297;-92
2023/02/17 05:31:20;;;;;;;5.63;3.15;;;10.10;23.80;;;;;;4932465;29;20686;-90
2023/02/17 05:33:46;;;;;;;4.47;3.03;;;10.10;23.80;;;;;;4939328;29;20198;-91
2023/02/17 05:36:15;;;;;;;8.43;3.47;;;10.10;23.80;;;;;;4936534;29;20198;-92
2023/02/17 05:38:44;;;;;;;6.95;2.92;;;10.10;23.80;;;;;;4932560;29;20209;-92
2023/02/17 05:41:11;;;;;;;5.88;2.80;;;10.10;23.80;;;;;;4936485;29;20717;-91
2023/02/17 05:43:38;;;;;;;6.53;3.08;;;10.10;23.70;;;;;;4934332;29;20221;-92
2023/02/17 05:46:05;;;;;;;5.63;3.15;;;10.10;23.70;;;;;;4930125;29;20202;-89
2023/02/17 05:48:34;;;;;;;6.55;2.70;;;10.10;23.80;;;;;;4925902;29;20199;-91
2023/02/17 05:51:01;;;;;;;6.75;2.80;;;10.10;23.70;;;;;;4924986;29;20216;-95
2023/02/17 05:53:29;;;;;;;5.07;2.92;;;10.00;23.70;;;;;;4932622;29;20207;-93
2023/02/17 05:55:56;;;;;;;4.03;2.92;;;10.10;23.70;;;;;;4930939;29;20218;-90
2023/02/17 05:58:23;;;;;;;3.83;2.60;;;10.10;23.70;;;;;;4932754;29;20206;-94
2023/02/17 06:00:50;;;;;;;5.85;3.15;;;10.00;23.70;;;;;;4935018;28;20233;-92
2023/02/17 06:03:17;;;;;;;6.65;2.97;;;10.00;23.70;;;;;;4933802;29;20213;-91
2023/02/17 06:05:45;;;;;;;4.20;3.10;;;10.10;23.70;;;;;;4941281;29;20211;-94
2023/02/17 06:08:12;;;;;;;9.40;2.72;;;10.10;23.70;;;;;;4928835;29;21003;-93
2023/02/17 06:10:44;;;;;;;5.85;2.97;;;10.20;23.80;;;;;;4934964;29;20737;-94
2023/02/17 06:13:12;;;;;;;4.07;2.70;;;10.10;23.70;;;;;;4935402;29;20643;-92
2023/02/17 06:15:39;;;;;;;6.25;2.80;;;10.20;23.90;;;;;;4934940;29;20209;-92
2023/02/17 06:18:06;;;;;;;5.72;2.90;;;10.20;24.90;;;;;;4929561;29;20472;-88
2023/02/17 06:20:32;;;;;;;7.72;2.80;;;10.30;23.90;;;;;;4931872;28;20587;-91
2023/02/17 06:22:59;;;;;;;7.80;3.00;;;10.30;23.90;;;;;;4916203;29;20226;-94
2023/02/17 06:25:26;;;;;;;3.60;2.80;;;10.30;23.90;;;;;;4933896;29;20206;-93
2023/02/17 06:27:54;;;;;;;6.28;2.92;;;10.20;23.80;;;;;;4936176;29;20212;-96
2023/02/17 06:30:22;;;;;;;5.70;2.80;;;10.30;23.90;;;;;;4934278;28;20555;-89
2023/02/17 06:32:50;;;;;;;5.47;2.88;;;10.30;23.90;;;;;;4929563;29;20208;-89
2023/02/17 06:35:17;;;;;;;4.78;2.75;;;10.30;24.00;;;;;;4928853;29;20210;-90
2023/02/17 06:37:44;;;;;;;4.57;2.80;;;10.30;24.00;;;;;;4937279;29;20403;-93
2023/02/17 06:40:12;;;;;;;4.38;2.92;;;10.30;25.70;;;;;;4934313;29;20226;-92
2023/02/17 06:42:38;;;;;;;5.05;2.70;;;10.20;27.40;;;;;;4938957;29;20782;-92
2023/02/17 06:45:09;;;;;;;4.78;3.13;;;10.20;28.20;;;;;;4935917;29;20201;-92
2023/02/17 06:47:36;;;;;;;5.40;2.67;;;10.20;28.10;;;;;;4932747;29;20197;-91
2023/02/17 06:50:03;;;;;;;6.28;2.70;;;10.20;29.30;;;;;;4931039;29;20785;-90
2023/02/17 06:52:29;;;;;;;6.40;2.42;;;10.20;29.30;;;;;;4929777;29;20681;-91
2023/02/17 06:54:56;;;;;;;12.27;2.97;;;10.20;30.60;;;;;;4931934;29;20198;-92
2023/02/17 06:57:23;;;;;;;6.32;2.90;;;10.20;30.90;;;;;;4932839;29;20210;-91
2023/02/17 06:59:50;;;;;;;6.63;2.70;;;10.20;30.30;;;;;;4933094;29;20233;-92
2023/02/17 07:02:19;;;;;;;8.27;2.80;;;10.20;30.30;;;;;;4932235;29;20237;-92
2023/02/17 07:04:45;;;;;;;8.38;2.50;;;10.30;30.50;;;;;;4938737;29;20506;-91
2023/02/17 07:07:12;;;;;;;8.35;3.13;;;10.30;30.10;;;;;;4948843;29;20194;-89
2023/02/17 07:09:39;;;;;;;7.35;2.60;;;10.20;30.20;;;;;;4960090;29;20200;-89
2023/02/17 07:12:07;;;;;;;10.13;3.05;;;10.40;30.00;;;;;;4947080;29;20213;-92
2023/02/17 07:14:35;;;;;;;9.60;2.53;;;10.50;29.80;;;;;;4932479;29;20542;-92
2023/02/17 07:17:02;;;;;;;6.28;2.33;;;10.60;28.70;;;;;;4928771;29;20217;-91
2023/02/17 07:19:30;;;;;;;6.88;2.85;;;10.60;29.80;;;;;;4936175;29;20232;-91
2023/02/17 07:21:57;;;;;;;8.20;2.67;;;10.70;30.90;;;;;;4938122;29;20298;-96
2023/02/17 07:24:24;;;;;;;8.55;2.95;;;10.80;30.80;;;;;;4937124;29;20214;-96
2023/02/17 07:26:52;;;;;;;9.57;2.72;;;10.90;30.80;;;;;;4937154;29;20206;-94
2023/02/17 07:29:19;;;;;;;7.97;2.90;;;11.10;30.80;;;;;;4944015;29;20230;-93
2023/02/17 07:31:46;;;;;;;9.18;2.78;;;11.10;31.20;;;;;;4948199;29;20217;-86
2023/02/17 07:34:14;;;;;;;10.52;2.65;;;11.20;30.50;;;;;;4952343;28;20201;-96
2023/02/17 07:36:43;;;;;;;7.38;2.90;;;11.20;31.00;;;;;;4946116;28;20210;-95
2023/02/17 07:39:09;;;;;;;6.47;2.70;;;11.30;30.60;;;;;;4938249;29;20217;-95
2023/02/17 07:41:36;;;;;;;8.68;2.72;;;11.40;30.90;;;;;;4934821;29;20580;-94
2023/02/17 07:44:03;;;;;;;10.70;3.15;;;11.40;30.60;;;;;;4930594;29;20201;-91
2023/02/17 07:46:31;;;;;;;6.88;2.40;;;11.60;30.50;;;;;;4931256;29;20290;-90
2023/02/17 07:48:58;;;;;;;13.32;2.63;;;11.70;29.80;;;;;;4934470;29;20261;-91
2023/02/17 07:51:25;;;;;;;7.90;2.90;;;11.70;30.00;;;;;;4931442;29;20209;-92
2023/02/17 07:53:54;;;;;;;7.25;3.00;;;11.70;29.70;;;;;;4943133;28;20276;-91
2023/02/17 07:56:22;;;;;;;6.22;2.80;;;11.70;30.00;;;;;;4941770;29;20206;-91
2023/02/17 07:58:49;;;;;;;12.63;3.08;;;11.70;29.50;;;;;;4938483;29;20214;-92
2023/02/17 08:01:18;;;;;;;8.75;3.03;;;11.70;30.30;;;;;;4938232;29;20225;-92
2023/02/17 08:03:45;;;;;;;13.18;3.20;;;11.70;30.30;;;;;;4934946;29;20262;-92
2023/02/17 08:06:14;;;;;;;5.65;2.30;;;11.60;30.40;;;;;;4929484;29;20202;-92
2023/02/17 08:14:13;;;;;;;8.13;2.50;;;11.90;30.30;;;;;;4932640;29;20729;-96
2023/02/17 08:16:40;;;;;;;6.70;3.17;;;11.90;30.60;;;;;;4932900;29;20206;-91
2023/02/17 08:19:08;;;;;;;5.82;2.47;;;11.80;30.60;;;;;;4940383;29;20590;-92
2023/02/17 08:21:35;;;;;;;10.57;2.70;;;11.80;31.40;;;;;;4931224;29;20233;-93
2023/02/17 08:24:02;;;;;;;10.32;2.40;;;11.90;31.80;;;;;;4934171;29;20206;-91
2023/02/17 08:26:30;;;;;;;7.50;2.60;;;11.90;32.20;;;;;;4940265;29;20214;-96
2023/02/17 08:29:00;;;;;;;8.27;2.60;;;11.90;32.90;;;;;;4945331;29;20412;-96
2023/02/17 08:31:29;;;;;;;11.38;2.67;;;12.00;32.20;;;;;;4948349;29;20233;-96
2023/02/17 08:33:58;;;;;;;6.90;2.47;;;12.00;33.50;;;;;;4930581;29;20210;-94
2023/02/17 08:36:25;;;;;;;10.57;2.75;;;12.00;33.00;;;;;;4955012;29;20509;-91
2023/02/17 08:38:52;;;;;;;9.35;3.03;;;12.00;33.70;;;;;;4956072;28;20202;-94
2023/02/17 08:41:23;;;;;;;8.70;2.70;;;12.00;33.80;;;;;;4953350;29;20203;-95
2023/02/17 08:43:52;;;;;;;10.63;2.90;;;12.00;33.00;;;;;;4950923;29;20210;-94
2023/02/17 08:46:21;;;;;;;10.65;2.78;;;12.10;33.70;;;;;;4939077;28;20296;-93
2023/02/17 08:53:56;;;;;;;12.77;3.80;;;12.20;34.50;;;;;;5766535;23;20398;-88
2023/02/17 09:19:39;;;;;;;10.20;3.25;;;12.20;40.10;;;;;;5472738;23;20214;-88
2023/02/17 09:27:17;;;;;;;8.45;3.00;;;11.80;65.70;;;;;;5790189;23;20216;-87
2023/02/17 09:32:12;;;;;;;6.72;2.95;;;11.70;68.70;;;;;;5644939;23;20265;-89
2023/02/17 09:34:41;;;;;;;7.47;3.20;;;11.70;67.30;;;;;;5112961;23;20292;-88
2023/02/17 09:37:12;;;;;;;6.35;3.08;;;11.80;64.40;;;;;;5303471;23;20219;-91
2023/02/17 09:42:18;;;;;;;6.75;3.42;;;12.10;58.80;;;;;;5209925;23;20234;-89
2023/02/17 09:47:25;;;;;;;7.22;3.13;;;12.30;54.70;;;;;;5213921;23;20244;-88
2023/02/17 09:49:56;;;;;;;8.18;3.28;;;12.40;52.90;;;;;;5041873;23;20247;-96
2023/02/17 09:52:31;;;;;;;8.70;2.83;;;12.50;49.10;;;;;;4978452;28;20214;-94
2023/02/17 09:55:04;;;;;;;7.45;3.13;;;12.50;49.10;;;;;;4986575;28;20208;-96
2023/02/17 09:57:36;;;;;;;7.53;3.20;;;12.50;49.00;;;;;;4985691;28;20207;-95
2023/02/17 10:00:09;;;;;;;8.25;3.10;;;12.50;49.00;;;;;;4987827;28;20220;-94
2023/02/17 10:02:42;;;;;;;9.98;2.67;;;12.60;49.10;;;;;;4984319;28;20296;-95
2023/02/17 10:05:15;;;;;;;6.43;2.78;;;12.80;44.50;;;;;;4979977;28;20197;-94
2023/02/17 10:07:46;;;;;;;8.75;3.25;;;13.00;42.80;;;;;;4978815;28;20204;-95
2023/02/17 10:10:18;;;;;;;8.60;3.00;;;13.00;42.60;;;;;;4979008;28;20204;-94
2023/02/17 10:12:49;;;;;;;5.63;2.83;;;13.00;40.10;;;;;;4981138;28;20201;-96
2023/02/17 10:15:19;;;;;;;8.48;3.30;;;12.90;41.00;;;;;;4982490;28;20201;-96
2023/02/17 10:17:53;;;;;;;10.10;2.80;;;12.90;41.60;;;;;;4983431;28;20225;-92
2023/02/17 10:20:25;;;;;;;9.68;2.90;;;13.10;40.10;;;;;;4984251;28;20200;-96
2023/02/17 10:22:57;;;;;;;8.07;3.35;;;13.40;38.90;;;;;;4985755;28;20307;-94
2023/02/17 10:25:35;;;;;;;9.68;2.95;;;13.50;37.60;;;;;;4989471;28;20199;-91
2023/02/17 10:28:09;;;;;;;10.38;3.30;;;13.70;35.70;;;;;;4990125;28;20303;-93
2023/02/17 10:30:44;;;;;;;7.05;2.58;;;13.70;35.80;;;;;;4985815;28;20282;-92
2023/02/17 10:33:20;;;;;;;6.15;3.15;;;13.70;35.00;;;;;;4981004;28;20239;-95
2023/02/17 10:36:11;;;;;;;8.40;3.05;;;13.60;34.70;;;;;;4981714;28;20203;-94
2023/02/17 10:38:48;;;;;;;9.77;2.72;;;13.60;35.80;;;;;;4981477;28;20220;-87
2023/02/17 10:41:20;;;;;;;5.28;2.65;;;13.50;35.80;;;;;;4992409;28;20322;-89
2023/02/17 10:43:48;;;;;;;5.70;2.60;;;13.60;35.50;;;;;;4985600;28;20213;-95
2023/02/17 10:46:18;;;;;;;3.38;2.38;;;13.80;34.20;;;;;;4984190;28;20295;-89
2023/02/17 10:48:52;;;;;;;10.57;2.70;;;13.90;32.90;;;;;;4986390;28;20201;-89
2023/02/17 10:51:24;;;;;;;6.25;2.65;;;14.20;31.50;;;;;;5201954;23;20229;-89
2023/02/17 10:59:05;;;;;;;6.20;3.00;;;14.60;27.50;;;;;;5569130;23;20464;-94
2023/02/17 11:01:33;;;;;;;4.93;2.58;;;14.80;27.80;;;;;;5014334;28;20231;-87
2023/02/17 11:17:01;;;;;;;10.77;2.78;;;16.10;25.10;;;;;;5495161;23;20219;-92
2023/02/17 11:53:29;;;;;;;6.38;2.20;;;14.80;27.70;;;;;;5050308;23;20232;-94
2023/02/17 11:59:12;;;;;;;5.50;2.53;;;14.60;27.50;;;;;;5085323;23;20242;-96
2023/02/17 12:01:58;;;;;;;5.95;2.22;;;14.80;27.70;;;;;;4970551;28;20312;-91
2023/02/17 12:04:30;;;;;;;3.63;2.20;;;14.90;27.80;;;;;;4953493;28;20208;-91
2023/02/17 12:07:19;;;;;;;6.65;2.50;;;14.90;27.70;;;;;;4955877;28;20197;-89
2023/02/17 12:09:55;;;;;;;6.10;2.28;;;14.80;27.70;;;;;;4954980;28;20211;-90
2023/02/17 12:12:32;;;;;;;7.10;2.50;;;14.60;27.50;;;;;;4956527;28;20204;-90
2023/02/17 12:15:28;;;;;;;9.70;2.42;;;14.70;27.60;;;;;;4955895;28;20235;-96
2023/02/17 12:18:08;;;;;;;6.72;2.50;;;14.60;27.50;;;;;;4955435;29;20221;-90
2023/02/17 12:21:00;;;;;;;8.38;2.60;;;14.70;27.60;;;;;;4954978;28;20220;-90
2023/02/17 12:23:45;;;;;;;6.85;2.30;;;14.90;27.70;;;;;;4954594;29;20205;-90
2023/02/17 12:26:25;;;;;;;5.55;2.35;;;14.90;27.80;;;;;;4954809;28;20201;-91
2023/02/17 12:29:04;;;;;;;8.10;2.33;;;15.10;27.90;;;;;;4959830;28;20209;-93
2023/02/17 12:32:09;;;;;;;4.10;2.30;;;15.20;28.00;;;;;;4960280;28;20227;-91
2023/02/17 12:34:42;;;;;;;4.60;2.30;;;15.00;27.90;;;;;;4934626;28;20213;-93
2023/02/17 12:37:18;;;;;;;4.15;1.92;;;14.90;27.80;;;;;;4953881;28;20202;-92
2023/02/17 12:39:51;;;;;;;5.50;2.15;;;14.70;27.60;;;;;;4946378;28;20201;-92
2023/02/17 12:42:32;;;;;;;6.85;2.25;;;14.60;28.60;;;;;;4974837;28;20217;-85
2023/02/17 12:45:06;;;;;;;5.55;2.50;;;14.60;29.20;;;;;;4965322;28;20235;-93
2023/02/17 12:57:04;;;;;;;5.25;1.98;;;14.50;30.90;;;;;;4949163;29;20201;-93
2023/02/17 13:02:18;;;;;;;4.35;2.15;;;14.60;32.70;;;;;;4945802;28;20229;-92
2023/02/17 13:04:49;;;;;;;4.35;2.10;;;14.60;31.90;;;;;;4952941;29;20210;-93
2023/02/17 13:10:20;;;;;;;5.53;2.22;;;14.60;31.90;;;;;;4951466;29;20213;-92
2023/02/17 13:12:57;;;;;;;6.65;2.15;;;14.20;32.40;;;;;;4956508;28;20205;-92
2023/02/17 13:15:29;;;;;;;5.43;2.20;;;14.20;32.50;;;;;;4956649;28;20561;-92
2023/02/17 13:20:59;;;;;;;5.70;2.03;;;14.20;34.30;;;;;;4947364;29;20296;-94
2023/02/17 13:23:38;;;;;;;3.92;2.10;;;14.10;34.70;;;;;;4957109;28;20209;-92
2023/02/17 13:26:24;;;;;;;4.03;2.10;;;14.10;34.80;;;;;;4947750;28;20581;-91
2023/02/17 13:29:12;;;;;;;9.70;2.50;;;14.00;35.80;;;;;;4941788;29;20216;-92
2023/02/17 13:32:02;;;;;;;8.38;2.22;;;14.10;38.10;;;;;;4951657;28;20213;-92
2023/02/17 13:34:36;;;;;;;4.72;2.75;;;14.00;38.60;;;;;;4950251;28;20194;-92
2023/02/17 13:37:16;;;;;;;3.53;2.55;;;13.90;39.60;;;;;;4948174;28;20193;-92
2023/02/17 13:39:44;;;;;;;6.25;2.30;;;13.90;40.40;;;;;;4944426;29;20204;-92
2023/02/17 13:42:33;;;;;;;5.15;2.45;;;13.80;40.50;;;;;;4955766;28;20228;-92
2023/02/17 13:45:01;;;;;;;3.92;2.20;;;13.80;41.10;;;;;;4954890;28;20217;-93
2023/02/17 13:47:34;;;;;;;8.10;2.70;;;13.70;42.00;;;;;;4953999;29;20197;-93
2023/02/17 13:50:01;;;;;;;6.20;2.42;;;13.70;42.10;;;;;;4948001;28;20621;-92
2023/02/17 13:52:30;;;;;;;6.20;2.42;;;13.70;42.90;;;;;;4954057;28;20224;-92
2023/02/17 13:54:59;;;;;;;4.50;2.42;;;13.70;42.90;;;;;;4954470;28;20209;-92
2023/02/17 13:57:28;;;;;;;4.88;2.40;;;13.70;43.20;;;;;;4953299;29;20217;-92
2023/02/17 14:00:10;;;;;;;4.60;2.15;;;13.60;43.70;;;;;;4955585;29;20212;-93
2023/02/17 14:05:36;;;;;;;3.95;2.38;;;13.60;45.00;;;;;;4957277;28;20217;-93
2023/02/17 14:08:06;;;;;;;4.18;2.08;;;13.60;45.30;;;;;;4947280;28;20201;-93
2023/02/17 14:10:33;;;;;;;4.55;2.33;;;13.60;46.40;;;;;;4953227;28;20205;-92
2023/02/17 14:13:01;;;;;;;7.97;2.30;;;13.70;45.80;;;;;;4955952;28;20299;-93
2023/02/17 14:15:29;;;;;;;10.30;2.28;;;13.80;44.80;;;;;;4946391;29;20205;-92
2023/02/17 14:17:58;;;;;;;4.57;2.22;;;13.80;43.90;;;;;;4953384;29;20205;-93
2023/02/17 14:20:32;;;;;;;3.17;2.30;;;13.80;45.30;;;;;;4964523;28;20202;-93
2023/02/17 14:23:03;;;;;;;4.68;2.17;;;13.80;44.20;;;;;;4962131;28;20231;-93
2023/02/17 14:25:51;;;;;;;5.93;2.30;;;13.60;44.50;;;;;;4966387;28;20622;-93
2023/02/17 14:28:19;;;;;;;2.85;1.90;;;13.50;45.10;;;;;;4949699;28;20296;-91
2023/02/17 14:30:47;;;;;;;5.20;2.17;;;13.50;46.60;;;;;;4949881;28;20226;-92
2023/02/17 14:33:22;;;;;;;4.95;2.15;;;13.50;46.10;;;;;;4952646;28;20272;-92
2023/02/17 14:35:55;;;;;;;3.50;1.75;;;13.50;46.10;;;;;;4953982;28;20236;-92
2023/02/17 14:38:25;;;;;;;4.10;1.80;;;13.50;46.00;;;;;;4960644;28;20205;-93
2023/02/17 14:40:54;;;;;;;4.07;1.75;;;13.50;46.70;;;;;;4953720;29;20198;-93
2023/02/17 14:43:22;;;;;;;4.03;2.05;;;13.50;46.50;;;;;;4954532;29;20240;-93
2023/02/17 14:45:49;;;;;;;5.38;2.03;;;13.60;46.60;;;;;;4955131;28;20197;-93
2023/02/17 14:48:28;;;;;;;4.15;1.90;;;13.50;47.80;;;;;;4950521;28;20212;-92
2023/02/17 14:50:58;;;;;;;4.50;2.00;;;13.50;47.10;;;;;;4955872;28;20201;-92
2023/02/17 14:53:28;;;;;;;4.45;2.05;;;13.40;49.30;;;;;;4957873;28;20202;-93
2023/02/17 14:56:00;;;;;;;2.80;2.00;;;13.50;49.50;;;;;;4948548;28;20296;-92
2023/02/17 14:58:29;;;;;;;4.10;1.70;;;13.50;47.70;;;;;;4949509;29;20218;-92
2023/02/17 15:00:58;;;;;;;2.50;1.70;;;13.40;49.80;;;;;;4952189;28;20927;-93
2023/02/17 15:03:27;;;;;;;3.38;1.80;;;13.50;48.30;;;;;;4950608;28;20216;-92
2023/02/17 15:08:39;;;;;;;3.25;1.80;;;13.50;47.80;;;;;;4948939;29;20205;-92
2023/02/17 15:11:06;;;;;;;6.22;2.13;;;13.50;47.80;;;;;;4969541;28;20206;-91
2023/02/17 15:13:36;;;;;;;4.25;2.28;;;13.50;47.80;;;;;;4946145;28;20205;-92